Latest Weather Observations for Scotts Peak

IDT60801

Issued at 4:35 pm EDT Thursday 23 October 2014 (issued every 30 minutes, with the page automatically refreshed every 10 minutes)

About weather observations | Map of weather stations | Latest weather observations for TAS | Other Formats
Station Details ID: 097083 Name: SCOTTS PEAK DAM Lat: -43.04 Lon: 146.27 Height: 408.0 m
Data from the previous 72 hours. | See also: Recent months at Scotts Peak
Date/Time
EDT
Temp
°C
App
Temp
°C
Dew
Point
Rel
Hum
%
Delta-T
°C
Wind Press
QNH
hPa
Press
MSL
hPa
Rain
since 9 am
mm
Dir
 
Spd
km/h
Gust
km/h
Spd
kts
Gust
kts
23/04:30pm 19.6 16.5 5.6 40 7.0 SW 11 17 6 9 - - 0.0
23/04:00pm 20.9 17.5 6.1 38 7.6 NW 13 22 7 12 - - 0.0
23/03:30pm 17.9 13.7 5.8 45 6.0 SSE 17 28 9 15 - - 0.0
23/03:00pm 17.8 13.5 5.4 44 6.1 S 17 22 9 12 - - 0.0
23/02:30pm 16.9 11.6 4.9 45 5.8 S 22 30 12 16 - - 0.0
23/02:00pm 16.9 12.7 5.5 47 5.6 SE 17 26 9 14 - - 0.0
23/01:30pm 16.0 11.2 4.7 47 5.4 SE 19 28 10 15 - - 0.0
23/01:00pm 15.4 10.7 5.0 50 5.0 SE 19 30 10 16 - - 0.0
23/12:30pm 15.0 9.8 5.5 53 4.6 SSE 22 30 12 16 - - 0.0
23/12:00pm 14.5 10.5 5.0 53 4.5 SE 15 28 8 15 - - 0.0
23/11:30am 13.0 9.2 3.9 54 4.2 SE 13 24 7 13 - - 0.0
23/11:00am 12.6 8.1 4.1 56 3.9 SE 17 26 9 14 - - 0.0
23/10:30am 11.9 7.3 3.9 58 3.7 SE 17 26 9 14 - - 0.0
23/10:00am 11.3 6.5 4.5 63 3.1 ESE 19 24 10 13 - - 0.0
23/09:30am 10.5 5.6 4.9 68 2.6 ESE 20 32 11 17 - - 0.0
23/09:00am 9.1 3.7 4.3 72 2.2 ESE 22 28 12 15 - - 0.6
23/08:30am 7.9 3.8 4.5 79 1.5 ESE 15 20 8 11 - - 0.6
23/08:00am 7.2 2.3 4.2 81 1.3 ESE 19 24 10 13 - - 0.6
23/07:30am 5.6 1.1 4.1 90 0.7 ESE 17 20 9 11 - - 0.6
23/07:00am 5.1 0.5 3.9 92 0.5 ESE 17 22 9 12 - - 0.6
23/06:30am 4.9 0.3 3.7 92 0.5 SE 17 24 9 13 - - 0.6
23/06:00am 5.2 0.3 4.0 92 0.5 SE 19 22 10 12 - - 0.6
23/05:30am 5.4 0.2 3.7 89 0.7 SE 20 28 11 15 - - 0.6
23/05:00am 5.6 1.9 4.2 91 0.6 ESE 13 19 7 10 - - 0.6
23/04:30am 6.0 1.9 4.6 91 0.6 ESE 15 20 8 11 - - 0.6
23/04:00am 6.7 3.6 5.5 92 0.5 ESE 11 17 6 9 - - 0.6
23/03:30am 7.6 4.3 6.4 92 0.6 SE 13 19 7 10 - - 0.6
23/03:00am 7.8 4.5 6.6 92 0.6 SSE 13 19 7 10 - - 0.6
23/02:30am 8.3 4.4 7.2 93 0.5 SSE 17 20 9 11 - - 0.6
23/02:00am 8.7 6.5 7.8 94 0.4 SE 9 15 5 8 - - 0.6
23/01:30am 9.0 7.3 8.2 95 0.4 SE 7 13 4 7 - - 0.6
23/01:00am 9.4 6.7 8.8 96 0.3 S 13 19 7 10 - - 0.6
23/12:30am 9.8 7.9 8.9 94 0.5 SSW 9 15 5 8 - - 0.6
23/12:00am 10.0 7.8 9.2 95 0.4 S 11 17 6 9 - - 0.6
 
Date/Time
EDT
Temp
°C
App
Temp
°C
Dew
Point
Rel
Hum
%
Delta-T
°C
Wind Press
QNH
hPa
Press
MSL
hPa
Rain
since 9 am
mm
Dir
 
Spd
km/h
Gust
km/h
Spd
kts
Gust
kts
22/11:30pm 10.0 7.4 9.5 97 0.3 S 13 19 7 10 - - 0.6
22/11:00pm 9.9 6.6 9.6 98 0.2 SW 17 22 9 12 - - 0.6
22/10:30pm 10.1 6.5 9.9 99 0.1 SSW 19 24 10 13 - - 0.6
22/10:00pm 10.1 5.6 9.9 99 0.1 SW 24 37 13 20 - - 0.6
22/09:30pm 10.2 4.9 10.0 99 0.1 SW 28 35 15 19 - - 0.4
22/09:00pm 10.5 6.4 10.2 98 0.2 WSW 22 30 12 16 - - 0.4
22/08:30pm 11.0 7.6 10.5 97 0.3 WSW 19 28 10 15 - - 0.4
22/08:00pm 11.4 7.5 10.8 96 0.3 WSW 22 32 12 17 - - 0.0
22/07:30pm 11.8 9.1 10.5 92 0.7 WSW 15 20 8 11 - - 0.0
22/07:00pm 12.5 9.1 10.6 88 1.0 W 19 24 10 13 - - 0.0
22/06:30pm 12.8 5.5 10.3 85 1.3 W 39 48 21 26 - - 0.0
22/06:00pm 13.8 7.6 10.0 78 2.0 W 33 44 18 24 - - 0.0
22/05:39pm 14.5 7.8 9.7 73 2.5 W 35 54 19 29 - - 0.0
22/05:30pm 15.0 7.3 10.0 72 2.7 WNW 41 56 22 30 - - 0.0
22/05:20pm 15.1 8.8 9.7 70 2.9 W 33 59 18 32 - - 0.0
22/05:00pm 15.6 9.9 9.9 69 3.0 W 30 43 16 23 - - 0.0
22/04:30pm 16.8 12.4 9.0 60 4.1 W 22 39 12 21 - - 0.0
22/04:01pm 18.0 10.5 9.4 57 4.6 WNW 39 57 21 31 - - 0.0
22/04:00pm 18.1 10.2 9.5 57 4.6 WNW 41 57 22 31 - - 0.0
22/03:36pm 18.5 8.1 7.9 50 5.5 WNW 52 70 28 38 - - 0.0
22/03:30pm 20.1 10.5 8.1 46 6.3 WNW 48 63 26 34 - - 0.0
22/03:00pm 20.0 9.9 7.4 44 6.6 WNW 50 65 27 35 - - 0.0
22/02:35pm 23.7 16.6 6.5 33 9.0 WNW 33 56 18 30 - - 0.0
22/02:30pm 25.3 20.0 8.3 34 9.3 WNW 26 35 14 19 - - 0.0
22/02:00pm 23.6 16.5 6.4 33 9.0 WNW 33 43 18 23 - - 0.0
22/01:52pm 24.7 18.6 8.2 35 9.0 NW 30 44 16 24 - - 0.0
22/01:30pm 24.0 20.3 9.6 40 8.0 N 19 24 10 13 - - 0.0
22/01:00pm 21.5 18.0 8.7 44 6.9 NNW 17 22 9 12 - - 0.0
22/12:30pm 21.7 17.8 7.2 39 7.6 NNW 17 20 9 11 - - 0.0
22/12:00pm 21.5 18.9 6.2 37 7.9 NW 9 15 5 8 - - 0.0
22/11:30am 20.1 17.4 5.4 38 7.4 NNW 9 13 5 7 - - 0.0
22/11:00am 17.5 14.4 3.8 40 6.5 NW 9 13 5 7 - - 0.0
22/10:30am 16.8 13.9 4.8 45 5.8 NNW 9 13 5 7 - - 0.0
22/10:00am 14.8 12.1 3.9 48 5.1 NW 7 13 4 7 - - 0.0
22/09:30am 13.9 11.3 4.2 52 4.5 E 7 11 4 6 - - 0.0
22/09:00am 12.0 9.7 4.7 61 3.4 E 6 9 3 5 - - 0.0
22/08:30am 11.4 8.1 4.8 64 3.1 NNE 11 15 6 8 - - 0.0
22/08:00am 9.6 5.8 4.0 68 2.5 NNE 13 19 7 10 - - 0.0
22/07:30am 8.6 3.3 3.2 69 2.4 NNE 20 24 11 13 - - 0.0
22/07:00am 8.6 4.4 4.0 73 2.1 NNE 15 20 8 11 - - 0.0
22/06:30am 8.3 2.6 3.0 69 2.3 NNE 22 28 12 15 - - 0.0
22/06:00am 8.3 2.7 3.4 71 2.2 NNE 22 26 12 14 - - 0.0
22/05:30am 8.1 3.9 3.6 73 2.0 N 15 24 8 13 - - 0.0
22/05:00am 8.4 3.9 4.0 74 2.0 N 17 24 9 13 - - 0.0
22/04:30am 8.3 4.2 4.3 76 1.8 N 15 20 8 11 - - 0.0
22/04:00am 8.3 4.7 5.2 81 1.4 N 13 15 7 8 - - 0.0
22/03:30am 8.4 5.6 5.0 79 1.6 N 9 11 5 6 - - 0.0
22/03:00am 9.4 5.8 4.8 73 2.1 NNE 13 17 7 9 - - 0.0
22/02:30am 9.9 7.2 5.7 75 2.0 S 9 15 5 8 - - 0.0
22/02:00am 9.7 6.6 5.7 76 1.9 NNE 11 17 6 9 - - 0.0
22/01:30am 10.2 8.1 5.8 74 2.1 ENE 6 15 3 8 - - 0.0
22/01:00am 10.3 7.8 6.6 78 1.8 SSE 9 15 5 8 - - 0.0
22/12:30am 10.2 7.3 6.4 77 1.8 SSE 11 13 6 7 - - 0.0
22/12:00am 10.6 7.3 6.2 74 2.1 SSE 13 17 7 9 - - 0.0
 
Date/Time
EDT
Temp
°C
App
Temp
°C
Dew
Point
Rel
Hum
%
Delta-T
°C
Wind Press
QNH
hPa
Press
MSL
hPa
Rain
since 9 am
mm
Dir
 
Spd
km/h
Gust
km/h
Spd
kts
Gust
kts
21/11:30pm 11.2 7.5 6.5 73 2.3 SSE 15 19 8 10 - - 0.0
21/11:00pm 11.0 7.4 6.6 74 2.1 SSE 15 17 8 9 - - 0.0
21/10:30pm 11.6 8.4 6.7 72 2.4 SSE 13 17 7 9 - - 0.0
21/10:00pm 12.3 9.1 6.8 69 2.7 SSE 13 17 7 9 - - 0.0
21/09:30pm 12.3 9.1 6.8 69 2.7 SE 13 17 7 9 - - 0.0
21/09:00pm 12.9 10.8 6.5 65 3.1 SW 7 11 4 6 - - 0.0
21/08:30pm 13.1 11.2 6.5 64 3.2 NNW 6 6 3 3 - - 0.0
21/08:00pm 14.6 13.3 5.9 56 4.2 WSW 2 7 1 4 - - 0.0
21/07:30pm 14.0 10.4 6.8 62 3.6 SW 15 20 8 11 - - 0.0
21/07:00pm 16.1 12.2 7.3 56 4.5 WSW 17 22 9 12 - - 0.0
21/06:30pm 17.1 13.0 7.7 54 4.8 WSW 19 22 10 12 - - 0.0
21/06:00pm 17.8 13.0 7.2 50 5.4 SW 22 28 12 15 - - 0.0
21/05:30pm 19.7 16.3 7.8 46 6.2 WSW 15 20 8 11 - - 0.0
21/05:00pm 19.2 14.3 7.0 45 6.3 WSW 22 30 12 16 - - 0.0
21/04:30pm 21.4 18.1 4.5 33 8.4 NW 11 13 6 7 - - 0.0
21/04:00pm 21.9 18.3 4.9 33 8.6 NW 13 17 7 9 - - 0.0
21/03:30pm 21.0 17.1 5.4 36 7.9 NW 15 17 8 9 - - 0.0
21/03:00pm 20.4 16.8 4.8 36 7.8 NW 13 15 7 8 - - 0.0
21/02:30pm 21.9 18.1 5.8 35 8.2 NW 15 19 8 10 - - 0.0
21/02:00pm 20.7 17.7 5.9 38 7.5 NW 11 17 6 9 - - 0.0
21/01:30pm 20.0 16.7 6.4 41 7.0 NW 13 19 7 10 - - 0.0
21/01:00pm 19.4 16.3 7.2 45 6.3 NNW 13 19 7 10 - - 0.0
21/12:30pm 15.6 12.6 6.1 53 4.7 NW 11 17 6 9 - - 0.0
21/12:00pm 15.2 12.0 5.1 51 4.9 NW 11 15 6 8 - - 0.0
21/11:30am 14.5 12.0 6.6 59 3.9 NW 9 13 5 7 - - 0.0
21/11:00am 13.7 11.6 6.8 63 3.4 NNW 7 11 4 6 - - 0.0
21/10:30am 10.8 7.7 3.8 62 3.2 NW 9 11 5 6 - - 0.0
21/10:00am 10.3 7.7 6.3 76 1.9 NNW 9 13 5 7 - - 0.0
21/09:30am 8.9 7.3 6.2 83 1.3 NW 4 7 2 4 - - 0.0
21/09:00am 7.4 5.6 5.2 86 1.0 NW 4 9 2 5 - - 0.0
21/08:30am 6.1 4.5 4.3 88 0.8 SSE 2 9 1 5 - - 0.0
21/08:00am 4.4 1.5 2.8 89 0.7 SE 7 9 4 5 - - 0.0
21/07:30am 4.0 2.6 3.4 96 0.3 CALM 0 0 0 0 - - 0.0
21/07:00am 3.9 2.5 3.5 97 0.2 CALM 0 0 0 0 - - 0.0
21/06:30am 3.1 0.2 2.8 98 0.1 SE 7 9 4 5 - - 0.0
21/06:00am 2.8 -0.5 2.4 97 0.2 SSE 9 11 5 6 - - 0.0
21/05:30am 3.0 -0.7 2.4 96 0.2 SSE 11 13 6 7 - - 0.0
21/05:00am 3.2 0.3 2.5 95 0.3 SSE 7 9 4 5 - - 0.0
21/04:30am 3.5 0.6 2.6 94 0.4 SSE 7 9 4 5 - - 0.0
21/04:00am 4.0 1.2 3.0 93 0.4 SSE 7 9 4 5 - - 0.0
21/03:30am 4.2 1.0 3.2 93 0.4 SSE 9 11 5 6 - - 0.0
21/03:00am 4.2 1.0 3.2 93 0.4 SSE 9 11 5 6 - - 0.0
21/02:30am 4.2 0.6 3.2 93 0.4 S 11 13 6 7 - - 0.0
21/02:00am 4.1 0.5 3.1 93 0.4 SSE 11 13 6 7 - - 0.0
21/01:30am 4.4 0.5 3.2 92 0.5 S 13 15 7 8 - - 0.0
21/01:00am 4.4 0.8 3.2 92 0.5 S 11 13 6 7 - - 0.0
21/12:30am 4.3 0.7 3.1 92 0.5 SSE 11 15 6 8 - - 0.0
21/12:00am 4.4 0.5 3.2 92 0.5 SSE 13 17 7 9 - - 0.0
 
Date/Time
EDT
Temp
°C
App
Temp
°C
Dew
Point
Rel
Hum
%
Delta-T
°C
Wind Press
QNH
hPa
Press
MSL
hPa
Rain
since 9 am
mm
Dir
 
Spd
km/h
Gust
km/h
Spd
kts
Gust
kts
20/11:30pm 4.3 0.3 3.0 91 0.5 SSE 13 17 7 9 - - 0.0
20/11:00pm 4.4 0.4 2.9 90 0.6 SE 13 19 7 10 - - 0.0
20/10:30pm 4.6 0.6 2.9 89 0.7 SE 13 17 7 9 - - 0.0
20/10:00pm 4.8 1.2 2.8 87 0.8 SE 11 17 6 9 - - 0.0
20/09:30pm 5.3 1.6 2.5 82 1.2 SSE 11 15 6 8 - - 0.0
20/09:00pm 5.8 1.7 2.3 78 1.5 S 13 19 7 10 - - 0.0
20/08:30pm 6.1 0.7 2.4 77 1.6 SW 20 28 11 15 - - 0.0
20/08:00pm 6.4 0.3 2.5 76 1.6 SW 24 30 13 16 - - 0.0
20/07:30pm 7.1 -0.2 2.4 72 2.0 SW 30 39 16 21 - - 0.0
20/07:00pm 8.5 2.0 2.5 66 2.6 SW 26 35 14 19 - - 0.0
20/06:30pm 9.5 3.0 2.8 63 2.9 SW 26 43 14 23 - - 0.0
20/06:00pm 10.6 3.9 3.4 61 3.2 SW 28 37 15 20 - - 0.0
20/05:30pm 10.8 3.9 2.6 57 3.6 SW 28 39 15 21 - - 0.0
20/05:00pm 11.8 5.7 2.8 54 4.0 SW 24 30 13 16 - - 0.0

Other Formats:

Comma delimited format used in spreadsheet applications
http://www.bom.gov.au/fwo/IDT60801/IDT60801.95958.axf

JavaScript Object Notation format (JSON) in row-major order
http://www.bom.gov.au/fwo/IDT60801/IDT60801.95958.json